Terminal Aerodrome Forecast
Issued by NWS Atlanta, GA

Home | Current Version | Previous Version | Text Only | Print | Product List | Glossary On
Versions: 1 2 3 4 5 6 7 8 9 10 11 12 13 14 15 16 17 18 19 20 21 22 23 24 25
000
FTUS42 KFFC 011132
TAFMCN
TAF
KMCN 011132Z 0112/0212 00000KT 6SM BR FEW002
      TEMPO 0112/0113 4SM BR BKN002
     FM011300 03003KT P6SM FEW030 SCT250
     FM011600 05005KT P6SM BKN040
      TEMPO 0119/0123 5SM -TSRA BKN040CB
     FM020100 00000KT P6SM SCT200=

USA.gov is the U.S. government's official web portal to all federal, state and local government web resources and services.